createdAt,value
2017-12-19T00:01:02.992Z,3.77
2017-12-19T00:02:09.967Z,3.78
2017-12-19T00:03:16.737Z,3.79
2017-12-19T00:04:23.522Z,3.79
2017-12-19T00:05:30.405Z,3.79
2017-12-19T00:06:37.315Z,3.80
2017-12-19T00:07:44.207Z,3.79
2017-12-19T00:08:50.970Z,3.79
2017-12-19T00:09:57.752Z,3.79
2017-12-19T00:11:04.625Z,3.77
2017-12-19T00:12:11.366Z,3.78
2017-12-19T00:13:18.149Z,3.78
2017-12-19T00:14:24.918Z,3.78
2017-12-19T00:15:31.730Z,3.78
2017-12-19T00:16:38.513Z,3.79
2017-12-19T00:17:45.365Z,3.79
2017-12-19T00:18:52.157Z,3.77
2017-12-19T00:19:58.975Z,3.77
2017-12-19T00:21:05.754Z,3.79
2017-12-19T00:22:12.590Z,3.78
2017-12-19T00:23:19.445Z,3.78
2017-12-19T00:24:26.252Z,3.78
2017-12-19T00:25:33.089Z,3.78
2017-12-19T00:26:39.943Z,3.77
2017-12-19T00:27:46.821Z,3.77
2017-12-19T00:28:53.605Z,3.77
2017-12-19T00:30:05.432Z,3.78
2017-12-19T00:31:07.282Z,3.77
2017-12-19T00:32:14.049Z,3.77
2017-12-19T00:33:20.853Z,3.78
2017-12-19T00:34:27.781Z,3.77
2017-12-19T00:35:34.550Z,3.78
2017-12-19T00:36:41.473Z,3.78
2017-12-19T00:37:48.256Z,3.79
2017-12-19T00:38:55.102Z,3.78
2017-12-19T00:40:01.889Z,3.77
2017-12-19T00:41:08.664Z,3.78
2017-12-19T00:42:15.441Z,3.78
2017-12-19T00:43:22.293Z,3.79
2017-12-19T00:44:29.070Z,3.79
2017-12-19T00:45:35.861Z,3.79
2017-12-19T00:46:42.730Z,3.79
2017-12-19T00:47:49.516Z,3.79
2017-12-19T00:48:56.272Z,3.78
2017-12-19T00:50:03.098Z,3.77
2017-12-19T00:51:09.875Z,3.78
2017-12-19T00:52:16.735Z,3.78
2017-12-19T00:53:23.517Z,3.79
2017-12-19T00:54:30.305Z,3.78
2017-12-19T00:55:37.122Z,3.77
2017-12-19T00:56:43.912Z,3.78
2017-12-19T00:57:50.733Z,3.78
2017-12-19T00:58:57.495Z,3.77
2017-12-19T01:00:04.331Z,3.78
2017-12-19T01:01:11.088Z,3.78
2017-12-19T01:02:17.996Z,3.79
2017-12-19T01:03:24.790Z,3.78
2017-12-19T01:04:31.545Z,3.77
2017-12-19T01:05:38.301Z,3.77
2017-12-19T01:06:45.045Z,3.77
2017-12-19T01:07:51.874Z,3.77
2017-12-19T01:08:58.661Z,3.78
2017-12-19T01:10:05.417Z,3.77
2017-12-19T01:11:12.265Z,3.77
2017-12-19T01:12:19.029Z,3.77
2017-12-19T01:13:25.814Z,3.77
2017-12-19T01:14:32.541Z,3.78
2017-12-19T01:15:39.328Z,3.78
2017-12-19T01:16:46.104Z,3.78
2017-12-19T01:17:52.875Z,3.78
2017-12-19T01:18:59.649Z,3.78
2017-12-19T01:20:06.413Z,3.78
2017-12-19T01:21:13.148Z,3.77
2017-12-19T01:22:19.925Z,3.78
2017-12-19T01:23:26.724Z,3.78
2017-12-19T01:24:33.464Z,3.78
2017-12-19T01:25:40.241Z,3.77
2017-12-19T01:26:46.968Z,3.77
2017-12-19T01:27:53.730Z,3.78
2017-12-19T01:29:00.536Z,3.77
2017-12-19T01:30:07.242Z,3.77
2017-12-19T01:31:14.093Z,3.78
2017-12-19T01:32:20.792Z,3.77
2017-12-19T01:33:27.597Z,3.77
2017-12-19T01:34:34.369Z,3.77
2017-12-19T01:35:41.078Z,3.78
2017-12-19T01:36:47.808Z,3.78
2017-12-19T01:37:54.512Z,3.78
2017-12-19T01:39:01.321Z,3.79
2017-12-19T01:40:08.484Z,3.77
2017-12-19T01:41:15.364Z,3.78
2017-12-19T01:42:22.064Z,3.79
2017-12-19T01:43:28.773Z,3.79
2017-12-19T01:44:35.553Z,3.81
2017-12-19T01:45:42.284Z,3.80
2017-12-19T01:46:49.012Z,3.80
2017-12-19T01:47:55.720Z,3.79
2017-12-19T01:49:02.516Z,3.80
2017-12-19T01:50:09.272Z,3.81
2017-12-19T01:51:15.996Z,3.80
2017-12-19T01:52:22.716Z,3.80
2017-12-19T01:53:29.625Z,3.79
2017-12-19T01:54:36.357Z,3.79
2017-12-19T01:55:43.184Z,3.80
2017-12-19T01:56:49.893Z,3.79
2017-12-19T01:57:56.624Z,3.80
2017-12-19T01:59:03.448Z,3.81
2017-12-19T02:00:10.153Z,3.81
2017-12-19T02:01:17.032Z,3.82
2017-12-19T02:02:23.741Z,3.80
2017-12-19T02:03:30.532Z,3.80
2017-12-19T02:04:37.284Z,3.82
2017-12-19T02:05:44.001Z,3.81
2017-12-19T02:06:50.756Z,3.81
2017-12-19T02:07:57.464Z,3.83
2017-12-19T02:09:04.252Z,3.82
2017-12-19T02:10:10.993Z,3.82
2017-12-19T02:11:17.715Z,3.83
2017-12-19T02:12:24.472Z,3.82
2017-12-19T02:13:31.172Z,3.83
2017-12-19T02:14:37.952Z,3.82
2017-12-19T02:15:44.657Z,3.81
2017-12-19T02:16:51.391Z,3.82
2017-12-19T02:17:58.184Z,3.83
2017-12-19T02:19:05.120Z,3.82
2017-12-19T02:20:11.932Z,3.84
2017-12-19T02:21:18.821Z,3.83
2017-12-19T02:22:25.708Z,3.83
2017-12-19T02:23:32.604Z,3.84
2017-12-19T02:24:39.416Z,3.83
2017-12-19T02:25:46.249Z,3.84
2017-12-19T02:26:53.048Z,3.84
2017-12-19T02:27:59.929Z,3.84
2017-12-19T02:29:06.844Z,3.83
2017-12-19T02:30:13.664Z,3.85
2017-12-19T02:31:20.473Z,3.84
2017-12-19T02:32:27.300Z,3.83
2017-12-19T02:33:34.133Z,3.86
2017-12-19T02:34:40.937Z,3.84
2017-12-19T02:35:47.721Z,3.84
2017-12-19T02:36:54.540Z,3.85
2017-12-19T02:38:01.365Z,3.84
2017-12-19T02:39:08.196Z,3.85
2017-12-19T02:40:15.032Z,3.85
2017-12-19T02:41:21.833Z,3.85
2017-12-19T02:42:28.628Z,3.85
2017-12-19T02:43:35.488Z,3.86
2017-12-19T02:44:42.397Z,3.86
2017-12-19T02:45:49.206Z,3.86
2017-12-19T02:46:56.196Z,3.86
2017-12-19T02:48:03.048Z,3.85
2017-12-19T02:49:09.863Z,3.86
2017-12-19T02:50:16.672Z,3.86
2017-12-19T02:51:23.512Z,3.87
2017-12-19T02:52:30.436Z,3.87
2017-12-19T02:53:37.285Z,3.88
2017-12-19T02:54:44.098Z,3.87
2017-12-19T02:55:50.896Z,3.87
2017-12-19T02:56:57.712Z,3.87
2017-12-19T02:58:04.548Z,3.88
2017-12-19T02:59:11.596Z,3.89
2017-12-19T03:00:18.464Z,3.88
2017-12-19T03:01:25.288Z,3.88
2017-12-19T03:02:32.104Z,3.89
2017-12-19T03:03:38.928Z,3.88
2017-12-19T03:04:45.904Z,3.88
2017-12-19T03:05:52.744Z,3.88
2017-12-19T03:06:59.585Z,3.89
2017-12-19T03:08:06.468Z,3.88
2017-12-19T03:09:13.325Z,3.88
2017-12-19T03:10:20.240Z,3.89
2017-12-19T03:11:27.087Z,3.89
2017-12-19T03:12:34.092Z,3.88
2017-12-19T03:13:41.250Z,3.89
2017-12-19T03:14:48.080Z,3.89
2017-12-19T03:15:54.952Z,3.89
2017-12-19T03:17:01.801Z,3.88
2017-12-19T03:18:08.760Z,3.89
2017-12-19T03:19:15.627Z,3.89
2017-12-19T03:20:22.555Z,3.89
2017-12-19T03:21:29.604Z,3.88
2017-12-19T03:22:36.448Z,3.89
2017-12-19T03:23:43.220Z,3.89
2017-12-19T03:24:50.156Z,3.90
2017-12-19T03:25:57.159Z,3.91
2017-12-19T03:27:04.017Z,3.90
2017-12-19T03:28:10.849Z,3.89
2017-12-19T03:29:17.767Z,3.90
2017-12-19T03:30:24.602Z,3.90
2017-12-19T03:31:31.516Z,3.91
2017-12-19T03:32:38.336Z,3.89
2017-12-19T03:33:45.308Z,3.90
2017-12-19T03:34:52.220Z,3.90
2017-12-19T03:35:59.137Z,3.90
2017-12-19T03:37:06.001Z,3.91
2017-12-19T03:38:12.893Z,3.90
2017-12-19T03:39:19.720Z,3.91
2017-12-19T03:40:26.481Z,3.91
2017-12-19T03:41:33.383Z,3.91
2017-12-19T03:42:40.224Z,3.91
2017-12-19T03:43:47.144Z,3.91
2017-12-19T03:44:53.985Z,3.91
2017-12-19T03:46:00.964Z,3.91
2017-12-19T03:47:07.840Z,3.92
2017-12-19T03:48:14.761Z,3.90
2017-12-19T03:49:21.580Z,3.91
2017-12-19T03:50:28.440Z,3.91
2017-12-19T03:51:35.256Z,3.91
2017-12-19T03:52:42.235Z,3.91
2017-12-19T03:53:49.056Z,3.91
2017-12-19T03:54:55.961Z,3.91
2017-12-19T03:56:02.841Z,3.91
2017-12-19T03:57:09.681Z,3.92
2017-12-19T03:58:16.624Z,3.91
2017-12-19T03:59:23.475Z,3.90
2017-12-19T04:00:30.572Z,3.92
2017-12-19T04:01:37.396Z,3.92
2017-12-19T04:02:44.520Z,3.91
2017-12-19T04:03:51.356Z,3.91
2017-12-19T04:04:58.241Z,3.91
2017-12-19T04:06:05.172Z,3.90
2017-12-19T04:07:12.038Z,3.91
2017-12-19T04:08:18.936Z,3.89
2017-12-19T04:09:25.794Z,3.89
2017-12-19T04:10:32.744Z,3.89
2017-12-19T04:11:39.582Z,3.89
2017-12-19T04:12:46.552Z,3.91
2017-12-19T04:13:53.428Z,3.91
2017-12-19T04:15:00.328Z,3.91
2017-12-19T04:16:07.314Z,3.90
2017-12-19T04:17:14.213Z,3.91
2017-12-19T04:18:21.053Z,3.91
2017-12-19T04:19:28.129Z,3.90
2017-12-19T04:20:34.885Z,3.91
2017-12-19T04:21:41.660Z,3.92
2017-12-19T04:22:48.517Z,3.90
2017-12-19T04:23:55.440Z,3.91
2017-12-19T04:25:02.281Z,3.91
2017-12-19T04:26:09.213Z,3.90
2017-12-19T04:27:16.077Z,3.90
2017-12-19T04:28:22.998Z,3.91
2017-12-19T04:29:29.824Z,3.91
2017-12-19T04:30:36.616Z,3.91
2017-12-19T04:31:43.410Z,3.90
2017-12-19T04:32:50.256Z,3.92
2017-12-19T04:33:57.019Z,3.92
2017-12-19T04:35:03.800Z,3.91
2017-12-19T04:36:10.571Z,3.91
2017-12-19T04:37:17.405Z,3.91
2017-12-19T04:38:24.237Z,3.92
2017-12-19T04:39:31.064Z,3.91
2017-12-19T04:40:37.839Z,3.93
2017-12-19T04:41:44.692Z,3.91
2017-12-19T04:42:51.508Z,3.92
2017-12-19T04:43:58.409Z,3.92
2017-12-19T04:45:05.234Z,3.90
2017-12-19T04:46:12.160Z,3.91
2017-12-19T04:47:19.009Z,3.92
2017-12-19T04:48:25.837Z,3.91
2017-12-19T04:49:32.659Z,3.91
2017-12-19T04:50:39.467Z,3.91
2017-12-19T04:51:46.349Z,3.92
2017-12-19T04:52:53.205Z,3.92
2017-12-19T04:54:00.254Z,3.90
2017-12-19T04:55:07.108Z,3.92
2017-12-19T04:56:13.924Z,3.92
2017-12-19T04:57:20.728Z,3.91
2017-12-19T04:58:27.647Z,3.93
2017-12-19T04:59:34.457Z,3.93
2017-12-19T05:00:41.276Z,3.91
2017-12-19T05:01:48.175Z,3.92
2017-12-19T05:02:55.049Z,3.92
2017-12-19T05:04:01.913Z,3.92
2017-12-19T05:05:08.989Z,3.91
2017-12-19T05:06:15.828Z,3.93
2017-12-19T05:07:22.610Z,3.92
2017-12-19T05:08:29.472Z,3.93
2017-12-19T05:09:36.358Z,3.92
2017-12-19T05:10:43.230Z,3.91
2017-12-19T05:11:50.012Z,3.93
2017-12-19T05:12:56.804Z,3.91
2017-12-19T05:14:03.656Z,3.91
2017-12-19T05:15:10.597Z,3.93
2017-12-19T05:16:17.419Z,3.92
2017-12-19T05:17:24.268Z,3.92
2017-12-19T05:18:31.204Z,3.92
2017-12-19T05:19:38.072Z,3.91
2017-12-19T05:20:44.965Z,3.90
2017-12-19T05:21:51.914Z,3.91
2017-12-19T05:22:58.744Z,3.92
2017-12-19T05:24:05.586Z,3.92
2017-12-19T05:25:12.538Z,3.92
2017-12-19T05:26:19.396Z,3.92
2017-12-19T05:27:26.316Z,3.92
2017-12-19T05:28:33.145Z,3.92
2017-12-19T05:29:40.113Z,3.92
2017-12-19T05:30:46.966Z,3.93
2017-12-19T05:31:53.872Z,3.92
2017-12-19T05:33:00.688Z,3.91
2017-12-19T05:34:07.629Z,3.92
2017-12-19T05:35:14.420Z,3.90
2017-12-19T05:36:21.281Z,3.92
2017-12-19T05:37:28.124Z,3.93
2017-12-19T05:38:34.928Z,3.91
2017-12-19T05:39:41.866Z,3.92
2017-12-19T05:40:48.734Z,3.92
2017-12-19T05:41:55.603Z,3.92
2017-12-19T05:43:02.397Z,3.92
2017-12-19T05:44:09.245Z,3.91
2017-12-19T05:45:16.101Z,3.92
2017-12-19T05:46:22.973Z,3.93
2017-12-19T05:47:29.821Z,3.93
2017-12-19T05:48:36.669Z,3.93
2017-12-19T05:49:43.655Z,3.94
2017-12-19T05:50:50.453Z,3.94
2017-12-19T05:51:57.385Z,3.92
2017-12-19T05:53:04.238Z,3.94
2017-12-19T05:54:11.153Z,3.93
2017-12-19T05:55:18.028Z,3.91
2017-12-19T05:56:24.919Z,3.91
2017-12-19T05:57:31.705Z,3.93
2017-12-19T05:58:38.562Z,3.92
2017-12-19T05:59:45.400Z,3.91
2017-12-19T06:00:52.256Z,3.92
2017-12-19T06:01:59.210Z,3.92
2017-12-19T06:03:06.036Z,3.91
2017-12-19T06:04:12.901Z,3.93
2017-12-19T06:05:19.813Z,3.92
2017-12-19T06:06:26.698Z,3.92
2017-12-19T06:07:33.526Z,3.92
2017-12-19T06:08:40.485Z,3.92
2017-12-19T06:09:47.337Z,3.93
2017-12-19T06:10:54.273Z,3.92
2017-12-19T06:12:01.119Z,3.93
2017-12-19T06:13:08.062Z,3.93
2017-12-19T06:14:14.853Z,3.93
2017-12-19T06:15:21.672Z,3.93
2017-12-19T06:16:28.480Z,3.93
2017-12-19T06:17:35.263Z,3.93
2017-12-19T06:18:42.092Z,3.92
2017-12-19T06:19:48.909Z,3.92
2017-12-19T06:20:55.752Z,3.93
2017-12-19T06:22:02.657Z,3.93
2017-12-19T06:23:09.552Z,3.92
2017-12-19T06:24:16.561Z,3.94
2017-12-19T06:25:23.380Z,3.91
2017-12-19T06:26:30.256Z,3.93
2017-12-19T06:27:37.063Z,3.93
2017-12-19T06:28:43.880Z,3.92
2017-12-19T06:29:50.742Z,3.94
2017-12-19T06:30:57.609Z,3.92
2017-12-19T06:32:04.444Z,3.92
2017-12-19T06:33:11.272Z,3.91
2017-12-19T06:34:18.180Z,3.93
2017-12-19T06:35:25.060Z,3.93
2017-12-19T06:36:31.993Z,3.92
2017-12-19T06:37:38.872Z,3.93
2017-12-19T06:38:45.816Z,3.93
2017-12-19T06:39:52.708Z,3.91
2017-12-19T06:40:59.581Z,3.93
2017-12-19T06:42:06.457Z,3.93
2017-12-19T06:43:13.333Z,3.92
2017-12-19T06:44:20.204Z,3.94
2017-12-19T06:45:27.089Z,3.92
2017-12-19T06:46:34.024Z,3.91
2017-12-19T06:47:40.864Z,3.93
2017-12-19T06:48:47.737Z,3.92
2017-12-19T06:49:54.660Z,3.91
2017-12-19T06:51:01.532Z,3.91
2017-12-19T06:52:08.452Z,3.92
2017-12-19T06:53:15.366Z,3.91
2017-12-19T06:54:22.212Z,3.92
2017-12-19T06:55:29.085Z,3.94
2017-12-19T06:56:36.014Z,3.92
2017-12-19T06:57:42.892Z,3.93
2017-12-19T06:58:49.809Z,3.92
2017-12-19T06:59:56.618Z,3.92
2017-12-19T07:01:03.588Z,3.92
2017-12-19T07:02:10.516Z,3.92
2017-12-19T07:03:17.384Z,3.94
2017-12-19T07:04:24.270Z,3.92
2017-12-19T07:05:31.149Z,3.92
2017-12-19T07:06:37.961Z,3.92
2017-12-19T07:07:44.953Z,3.93
2017-12-19T07:08:51.789Z,3.94
2017-12-19T07:09:58.721Z,3.92
2017-12-19T07:11:05.585Z,3.92
2017-12-19T07:12:12.540Z,3.93
2017-12-19T07:13:19.390Z,3.93
2017-12-19T07:14:26.284Z,3.94
2017-12-19T07:15:33.145Z,3.92
2017-12-19T07:16:40.076Z,3.92
2017-12-19T07:17:46.886Z,3.92
2017-12-19T07:18:53.705Z,3.93
2017-12-19T07:20:00.502Z,3.93
2017-12-19T07:21:07.349Z,3.92
2017-12-19T07:22:14.128Z,3.92
2017-12-19T07:23:20.951Z,3.92
2017-12-19T07:24:27.764Z,3.93
2017-12-19T07:25:34.664Z,3.93
2017-12-19T07:26:41.516Z,3.92
2017-12-19T07:27:48.280Z,3.92
2017-12-19T07:28:55.076Z,3.94
2017-12-19T07:30:01.922Z,3.94
2017-12-19T07:31:08.836Z,3.92
2017-12-19T07:32:15.684Z,3.93
2017-12-19T07:33:22.625Z,3.92
2017-12-19T07:34:29.397Z,3.92
2017-12-19T07:35:36.212Z,3.92
2017-12-19T07:36:43.049Z,3.92
2017-12-19T07:37:49.820Z,3.91
2017-12-19T07:38:56.649Z,3.92
2017-12-19T07:40:03.432Z,3.92
2017-12-19T07:41:10.281Z,3.91
2017-12-19T07:42:17.077Z,3.92
2017-12-19T07:43:23.937Z,3.94
2017-12-19T07:44:30.701Z,3.92
2017-12-19T07:45:37.477Z,3.92
2017-12-19T07:46:44.237Z,3.94
2017-12-19T07:47:51.050Z,3.92
2017-12-19T07:48:57.906Z,3.92
2017-12-19T07:50:04.641Z,3.91
2017-12-19T07:51:11.482Z,3.93
2017-12-19T07:52:18.392Z,3.92
2017-12-19T07:53:25.184Z,3.92
2017-12-19T07:54:31.931Z,3.92
2017-12-19T07:55:38.849Z,3.92
2017-12-19T07:56:45.596Z,3.93
2017-12-19T07:57:52.366Z,3.91
2017-12-19T07:58:59.194Z,3.92
2017-12-19T08:00:05.953Z,3.91
2017-12-19T08:01:12.825Z,3.92
2017-12-19T08:02:19.583Z,3.94
2017-12-19T08:03:26.333Z,3.94
2017-12-19T08:04:33.109Z,3.92
2017-12-19T08:05:39.849Z,3.94
2017-12-19T08:06:46.592Z,3.93
2017-12-19T08:07:53.413Z,3.92
2017-12-19T08:09:00.132Z,3.92
2017-12-19T08:10:07.073Z,3.93
2017-12-19T08:11:13.823Z,3.94
2017-12-19T08:12:20.651Z,3.94
2017-12-19T08:13:27.428Z,3.94
2017-12-19T08:14:34.181Z,3.94
2017-12-19T08:15:40.932Z,3.93
2017-12-19T08:16:47.851Z,3.94
2017-12-19T08:17:54.653Z,3.94
2017-12-19T08:19:01.472Z,3.94
2017-12-19T08:20:08.301Z,3.92
2017-12-19T08:21:15.077Z,3.92
2017-12-19T08:22:21.888Z,3.93
2017-12-19T08:23:28.641Z,3.94
2017-12-19T08:24:35.397Z,3.94
2017-12-19T08:25:42.208Z,3.94
2017-12-19T08:26:49.044Z,3.93
2017-12-19T08:27:55.781Z,3.95
2017-12-19T08:29:02.551Z,3.94
2017-12-19T08:30:09.309Z,3.94
2017-12-19T08:31:16.245Z,3.95
2017-12-19T08:32:23.082Z,3.95
2017-12-19T08:33:29.847Z,3.96
2017-12-19T08:34:36.597Z,3.96
2017-12-19T08:35:43.361Z,3.95
2017-12-19T08:36:50.116Z,3.95
2017-12-19T08:37:56.860Z,3.95
2017-12-19T08:39:03.608Z,3.96
2017-12-19T08:40:10.360Z,3.96
2017-12-19T08:41:17.092Z,3.96
2017-12-19T08:42:23.992Z,3.97
2017-12-19T08:43:30.768Z,3.96
2017-12-19T08:44:37.500Z,3.96
2017-12-19T08:45:44.289Z,3.97
2017-12-19T08:46:51.078Z,3.98
2017-12-19T08:47:57.817Z,3.97
2017-12-19T08:49:04.590Z,3.98
2017-12-19T08:50:11.449Z,3.98
2017-12-19T08:51:18.239Z,3.97
2017-12-19T08:52:24.994Z,3.98
2017-12-19T08:53:31.760Z,3.99
2017-12-19T08:54:38.529Z,4.00
2017-12-19T08:55:45.277Z,4.00
2017-12-19T08:56:52.128Z,4.00
2017-12-19T08:57:58.853Z,4.00
2017-12-19T08:59:05.628Z,4.01
2017-12-19T09:00:12.378Z,4.01
2017-12-19T09:01:19.134Z,4.01
2017-12-19T09:02:25.937Z,4.01
2017-12-19T09:03:32.689Z,4.01
2017-12-19T09:04:39.499Z,4.04
2017-12-19T09:05:46.604Z,4.04
2017-12-19T09:06:53.360Z,4.05
2017-12-19T09:08:00.110Z,4.05
2017-12-19T09:09:06.829Z,4.06
2017-12-19T09:10:13.645Z,4.05
2017-12-19T09:11:20.412Z,4.06
2017-12-19T09:12:27.184Z,4.05
2017-12-19T09:13:33.918Z,4.07
2017-12-19T09:14:40.677Z,4.07
2017-12-19T09:15:47.448Z,4.07
2017-12-19T09:16:54.177Z,4.07
2017-12-19T09:18:00.971Z,4.08
2017-12-19T09:19:07.734Z,4.08
2017-12-19T09:20:14.563Z,4.08
2017-12-19T09:21:21.304Z,4.09
2017-12-19T09:22:28.096Z,4.10
2017-12-19T09:23:34.842Z,4.11
2017-12-19T09:24:41.602Z,4.11
2017-12-19T09:25:48.468Z,4.11
2017-12-19T09:26:55.229Z,4.10
2017-12-19T09:28:02.021Z,4.11
2017-12-19T09:29:08.870Z,4.12
2017-12-19T09:30:15.625Z,4.10
2017-12-19T09:31:22.389Z,4.13
2017-12-19T09:32:29.180Z,4.12
2017-12-19T09:33:35.900Z,4.13
2017-12-19T09:34:42.641Z,4.13
2017-12-19T09:35:49.404Z,4.15
2017-12-19T09:36:56.141Z,4.14
2017-12-19T09:38:02.905Z,4.15
2017-12-19T09:39:09.646Z,4.16
2017-12-19T09:40:16.417Z,4.16
2017-12-19T09:41:23.150Z,4.16
2017-12-19T09:42:29.897Z,4.17
2017-12-19T09:43:36.677Z,4.18
2017-12-19T09:44:43.560Z,4.18
2017-12-19T09:45:50.284Z,4.17
2017-12-19T09:46:57.131Z,4.18
2017-12-19T09:48:03.898Z,4.18
2017-12-19T09:49:10.701Z,4.19
2017-12-19T09:50:17.469Z,4.20
2017-12-19T09:51:24.221Z,4.20
2017-12-19T09:52:30.965Z,4.20
2017-12-19T09:53:37.756Z,4.21
2017-12-19T09:54:44.512Z,4.23
2017-12-19T09:55:51.296Z,4.22
2017-12-19T09:56:58.005Z,4.23
2017-12-19T09:58:04.785Z,4.24
2017-12-19T09:59:11.528Z,4.24
2017-12-19T10:00:18.292Z,4.24
2017-12-19T10:01:25.030Z,4.25
2017-12-19T10:02:31.846Z,4.28
2017-12-19T10:03:38.614Z,4.27
2017-12-19T10:04:45.413Z,4.28
2017-12-19T10:05:52.253Z,4.27
2017-12-19T10:06:59.014Z,4.27
2017-12-19T10:08:05.772Z,4.28
2017-12-19T10:09:12.538Z,4.29
2017-12-19T10:10:19.312Z,4.31
2017-12-19T10:11:26.056Z,4.31
2017-12-19T10:12:32.789Z,4.31
2017-12-19T10:13:39.530Z,4.32
2017-12-19T10:14:46.264Z,4.33
2017-12-19T10:15:53.021Z,4.33
2017-12-19T10:16:59.747Z,4.35
2017-12-19T10:18:06.546Z,4.34
2017-12-19T10:19:13.293Z,4.34
2017-12-19T10:20:20.081Z,4.35
2017-12-19T10:21:26.850Z,4.36
2017-12-19T10:22:33.717Z,4.37
2017-12-19T10:23:40.541Z,4.40
2017-12-19T10:24:47.424Z,4.39
2017-12-19T10:25:54.308Z,4.39
2017-12-19T10:27:01.221Z,4.39
2017-12-19T10:28:08.073Z,4.40
2017-12-19T10:29:14.977Z,4.42
2017-12-19T10:30:21.901Z,4.41
2017-12-19T10:31:28.733Z,4.43
2017-12-19T10:32:35.505Z,4.45
2017-12-19T10:33:42.325Z,4.44
2017-12-19T10:34:49.085Z,4.45
2017-12-19T10:35:55.857Z,4.45
2017-12-19T10:37:02.596Z,4.47
2017-12-19T10:38:09.401Z,4.47
2017-12-19T10:39:16.125Z,4.48
2017-12-19T10:40:22.885Z,4.49
2017-12-19T10:41:29.713Z,4.49
2017-12-19T10:42:36.497Z,4.50
2017-12-19T10:43:43.329Z,4.50
2017-12-19T10:44:50.061Z,4.52
2017-12-19T10:45:56.921Z,4.52
2017-12-19T10:47:03.647Z,4.53
2017-12-19T10:48:10.366Z,4.54
2017-12-19T10:49:17.108Z,4.54
2017-12-19T10:50:23.830Z,4.55
2017-12-19T10:51:30.629Z,4.56
2017-12-19T10:52:37.369Z,4.58
2017-12-19T10:53:44.093Z,4.57
2017-12-19T10:54:50.835Z,4.57
2017-12-19T10:55:57.688Z,4.60
2017-12-19T10:57:04.428Z,4.60
2017-12-19T10:58:11.184Z,4.60
2017-12-19T10:59:17.937Z,4.62
2017-12-19T11:00:24.733Z,4.64
2017-12-19T11:01:31.889Z,4.64
2017-12-19T11:02:38.624Z,4.65
2017-12-19T11:03:45.356Z,4.66
2017-12-19T11:04:52.151Z,4.68
2017-12-19T11:05:58.953Z,4.69
2017-12-19T11:07:05.718Z,4.69
2017-12-19T11:08:12.496Z,4.70
2017-12-19T11:09:19.378Z,4.71
2017-12-19T11:10:26.237Z,4.72
2017-12-19T11:11:33.029Z,4.72
2017-12-19T11:12:39.797Z,4.74
2017-12-19T11:13:46.561Z,4.75
2017-12-19T11:14:53.353Z,4.77
2017-12-19T11:16:00.205Z,4.77
2017-12-19T11:17:06.997Z,4.78
2017-12-19T11:18:13.781Z,4.79
2017-12-19T11:19:20.628Z,4.81
2017-12-19T11:20:27.388Z,4.82
2017-12-19T11:21:34.161Z,4.80
2017-12-19T11:22:41.069Z,4.83
2017-12-19T11:23:47.821Z,4.83
2017-12-19T11:24:54.813Z,4.85
2017-12-19T11:26:01.766Z,4.86
2017-12-19T11:27:08.785Z,4.88
2017-12-19T11:28:15.808Z,4.88
2017-12-19T11:29:22.845Z,4.90
2017-12-19T11:30:29.748Z,4.91
2017-12-19T11:31:36.608Z,4.91
2017-12-19T11:32:43.545Z,4.93
2017-12-19T11:33:50.422Z,4.94
2017-12-19T11:34:57.402Z,4.95
2017-12-19T11:36:04.318Z,4.95
2017-12-19T11:37:11.333Z,4.97
2017-12-19T11:38:19.201Z,4.98
2017-12-19T11:39:25.100Z,4.97
2017-12-19T11:40:32.038Z,4.99
2017-12-19T11:41:38.873Z,5.01
2017-12-19T11:42:45.717Z,5.02
2017-12-19T11:43:52.468Z,5.04
2017-12-19T11:44:59.272Z,5.04
2017-12-19T11:46:06.053Z,5.07
2017-12-19T11:47:12.844Z,5.07
2017-12-19T11:48:19.700Z,5.07
2017-12-19T11:49:26.520Z,5.07
2017-12-19T11:50:33.263Z,5.08
2017-12-19T11:51:40.104Z,5.11
2017-12-19T11:52:46.936Z,5.10
2017-12-19T11:53:53.753Z,5.13
2017-12-19T11:55:00.560Z,5.13
2017-12-19T11:56:07.351Z,5.13
2017-12-19T11:57:14.324Z,5.14
2017-12-19T11:58:21.123Z,5.14
2017-12-19T11:59:27.929Z,5.16
2017-12-19T12:00:34.761Z,5.17
2017-12-19T12:01:41.597Z,5.17
2017-12-19T12:02:48.437Z,5.18
2017-12-19T12:03:55.279Z,5.20
2017-12-19T12:05:02.084Z,5.20
2017-12-19T12:06:08.974Z,5.22
2017-12-19T12:07:15.748Z,5.23
2017-12-19T12:08:22.621Z,5.24
2017-12-19T12:09:29.466Z,5.26
2017-12-19T12:10:36.268Z,5.26
2017-12-19T12:11:43.063Z,5.28
2017-12-19T12:12:49.872Z,5.29
2017-12-19T12:13:56.698Z,5.29
2017-12-19T12:15:03.459Z,5.29
2017-12-19T12:16:10.311Z,5.30
2017-12-19T12:17:17.067Z,5.32
2017-12-19T12:18:23.828Z,5.33
2017-12-19T12:19:30.756Z,5.34
2017-12-19T12:20:37.505Z,5.33
2017-12-19T12:21:44.260Z,5.35
2017-12-19T12:22:51.177Z,5.34
2017-12-19T12:23:58.000Z,5.36
2017-12-19T12:25:04.862Z,5.36
2017-12-19T12:26:11.645Z,5.38
2017-12-19T12:27:18.445Z,5.39
2017-12-19T12:28:25.224Z,5.39
2017-12-19T12:29:32.126Z,5.40
2017-12-19T12:30:38.904Z,5.41
2017-12-19T12:31:45.683Z,5.42
2017-12-19T12:32:52.468Z,5.43
2017-12-19T12:33:59.268Z,5.44
2017-12-19T12:35:06.090Z,5.44
2017-12-19T12:36:12.880Z,5.46
2017-12-19T12:37:19.669Z,5.47
2017-12-19T12:38:26.565Z,5.46
2017-12-19T12:39:33.312Z,5.46
2017-12-19T12:40:40.110Z,5.49
2017-12-19T12:41:46.877Z,5.49
2017-12-19T12:42:53.717Z,5.49
2017-12-19T12:44:00.488Z,5.51
2017-12-19T12:45:07.273Z,5.51
2017-12-19T12:46:14.188Z,5.52
2017-12-19T12:47:21.032Z,5.55
2017-12-19T12:48:27.765Z,5.53
2017-12-19T12:52:49.925Z,5.54
2017-12-19T12:53:56.737Z,5.60
2017-12-19T12:55:03.486Z,5.59
2017-12-19T12:56:10.244Z,5.61
2017-12-19T12:57:16.993Z,5.63
2017-12-19T12:58:23.862Z,5.65
2017-12-19T12:59:30.620Z,5.66
2017-12-19T13:00:37.388Z,5.66
2017-12-19T13:01:44.290Z,5.67
2017-12-19T13:02:51.240Z,5.68
2017-12-19T13:03:58.105Z,5.67
2017-12-19T13:05:04.904Z,5.68
2017-12-19T13:06:11.677Z,5.70
2017-12-19T13:07:18.693Z,5.72
2017-12-19T13:08:25.563Z,5.72
2017-12-19T13:09:32.502Z,5.73
2017-12-19T13:10:39.281Z,5.73
2017-12-19T13:11:46.062Z,5.74
2017-12-19T13:12:52.941Z,5.75
2017-12-19T13:13:59.712Z,5.76
2017-12-19T13:15:06.572Z,5.76
2017-12-19T13:16:13.420Z,5.79
2017-12-19T13:17:20.366Z,5.79
2017-12-19T13:18:27.266Z,5.80
2017-12-19T13:19:34.173Z,5.80
2017-12-19T13:20:40.981Z,5.83
2017-12-19T13:21:47.785Z,5.83
2017-12-19T13:22:54.561Z,5.85
2017-12-19T13:24:01.365Z,5.84
2017-12-19T13:25:08.127Z,5.87
2017-12-19T13:26:14.889Z,5.88
2017-12-19T13:27:21.704Z,5.87
2017-12-19T13:28:28.476Z,5.89
2017-12-19T13:29:35.326Z,5.90
2017-12-19T13:30:42.112Z,5.92
2017-12-19T13:31:49.105Z,5.92
2017-12-19T13:32:55.904Z,5.93
2017-12-19T13:34:02.688Z,5.93
2017-12-19T13:35:09.489Z,5.96
2017-12-19T13:36:16.398Z,5.95
2017-12-19T13:37:23.319Z,5.96
2017-12-19T13:38:30.225Z,5.97
2017-12-19T13:39:37.035Z,5.98
2017-12-19T13:40:43.829Z,6.01
2017-12-19T13:41:50.636Z,6.01
2017-12-19T13:42:57.477Z,6.01
2017-12-19T13:44:04.302Z,6.03
2017-12-19T13:45:11.223Z,6.02
2017-12-19T13:46:18.040Z,6.05
2017-12-19T13:47:24.843Z,6.05
2017-12-19T13:48:31.665Z,6.06
2017-12-19T13:49:38.461Z,6.07
2017-12-19T13:50:45.297Z,6.08
2017-12-19T13:51:52.086Z,6.10
2017-12-19T13:52:58.917Z,6.10
2017-12-19T13:54:05.665Z,6.09
2017-12-19T13:55:12.502Z,6.12
2017-12-19T13:56:19.305Z,6.12
2017-12-19T13:57:26.044Z,6.12
2017-12-19T13:58:32.935Z,6.13
2017-12-19T13:59:39.806Z,6.15
2017-12-19T14:00:46.689Z,6.15
2017-12-19T14:01:53.508Z,6.15
2017-12-19T14:03:00.424Z,6.17
2017-12-19T14:04:07.164Z,6.15
2017-12-19T14:05:13.940Z,6.17
2017-12-19T14:06:20.696Z,6.19
2017-12-19T14:07:27.545Z,6.20
2017-12-19T14:08:34.328Z,6.20
2017-12-19T14:09:41.097Z,6.20
2017-12-19T14:10:47.961Z,6.22
2017-12-19T14:11:54.772Z,6.23
2017-12-19T14:13:01.560Z,6.24
2017-12-19T14:14:08.404Z,6.24
2017-12-19T14:15:15.190Z,6.25
2017-12-19T14:16:21.961Z,6.26
2017-12-19T14:17:28.809Z,6.26
2017-12-19T14:18:35.580Z,6.27
2017-12-19T14:19:42.362Z,6.27
2017-12-19T14:20:49.125Z,6.28
2017-12-19T14:21:55.893Z,6.29
2017-12-19T14:23:02.653Z,6.29
2017-12-19T14:24:09.456Z,6.30
2017-12-19T14:25:16.313Z,6.31
2017-12-19T14:26:23.080Z,6.31
2017-12-19T14:27:29.820Z,6.32
2017-12-19T14:28:36.570Z,6.33
2017-12-19T14:29:43.412Z,6.33
2017-12-19T14:30:50.143Z,6.33
2017-12-19T14:31:56.910Z,6.35
2017-12-19T14:33:03.652Z,6.35
2017-12-19T14:34:10.482Z,6.34
2017-12-19T14:35:17.239Z,6.36
2017-12-19T14:36:23.984Z,6.37
2017-12-19T14:37:30.736Z,6.37
2017-12-19T14:38:37.528Z,6.37
2017-12-19T14:39:44.280Z,6.38
2017-12-19T14:40:51.033Z,6.38
2017-12-19T14:41:57.769Z,6.38
2017-12-19T14:43:04.596Z,6.39
2017-12-19T14:44:11.364Z,6.39
2017-12-19T14:45:18.104Z,6.39
2017-12-19T14:46:24.864Z,6.40
2017-12-19T14:47:31.653Z,6.40
2017-12-19T14:48:38.405Z,6.42
2017-12-19T14:49:45.187Z,6.44
2017-12-19T14:50:52.076Z,6.42
2017-12-19T14:51:58.804Z,6.43
2017-12-19T14:53:05.565Z,6.44